sensor_id;sensor_type;location;lat;lon;timestamp;pressure;altitude;pressure_sealevel;temperature;humidity
62458;BME280;48509;52.122;5.250;2023-05-19T00:00:25;102772.0;;;11.01;87.59
62458;BME280;48509;52.122;5.250;2023-05-19T00:02:02;102775.0;;;10.76;88.92
62458;BME280;48509;52.122;5.250;2023-05-19T00:05:25;102775.0;;;10.78;89.07
62458;BME280;48509;52.122;5.250;2023-05-19T00:07:01;102772.0;;;10.69;89.97
62458;BME280;48509;52.122;5.250;2023-05-19T00:08:38;102764.00000000001;;;10.72;89.53
62458;BME280;48509;52.122;5.250;2023-05-19T00:10:16;102758.99999999999;;;10.69;89.85
62458;BME280;48509;52.122;5.250;2023-05-19T00:13:29;102758.0;;;10.83;89.09
62458;BME280;48509;52.122;5.250;2023-05-19T00:15:07;102759.99999999999;;;10.73;89.71
62458;BME280;48509;52.122;5.250;2023-05-19T00:16:43;102755.0;;;10.7;89.78
62458;BME280;48509;52.122;5.250;2023-05-19T00:19:56;102755.0;;;10.69;89.61
62458;BME280;48509;52.122;5.250;2023-05-19T00:21:32;102755.0;;;10.72;89.21
62458;BME280;48509;52.122;5.250;2023-05-19T00:23:09;102751.0;;;10.66;90.0
62458;BME280;48509;52.122;5.250;2023-05-19T00:26:22;102752.0;;;10.64;90.58
62458;BME280;48509;52.122;5.250;2023-05-19T00:27:58;102751.0;;;10.64;90.16
62458;BME280;48509;52.122;5.250;2023-05-19T00:29:34;102750.0;;;10.7;89.83
62458;BME280;48509;52.122;5.250;2023-05-19T00:31:10;102756.0;;;10.59;90.35
62458;BME280;48509;52.122;5.250;2023-05-19T00:35:59;102748.0;;;10.64;90.3
62458;BME280;48509;52.122;5.250;2023-05-19T00:37:35;102755.0;;;10.63;90.41
62458;BME280;48509;52.122;5.250;2023-05-19T00:40:47;102753.0;;;10.6;90.61
62458;BME280;48509;52.122;5.250;2023-05-19T00:42:24;102751.0;;;10.5;91.08
62458;BME280;48509;52.122;5.250;2023-05-19T00:44:00;102750.0;;;10.4;91.15
62458;BME280;48509;52.122;5.250;2023-05-19T00:47:12;102752.0;;;10.19;92.93
62458;BME280;48509;52.122;5.250;2023-05-19T00:48:48;102754.0;;;10.09;93.65
62458;BME280;48509;52.122;5.250;2023-05-19T00:50:25;102747.0;;;10.08;93.73
62458;BME280;48509;52.122;5.250;2023-05-19T00:53:41;102748.0;;;10.17;93.65
62458;BME280;48509;52.122;5.250;2023-05-19T00:55:20;102744.0;;;10.21;93.39
62458;BME280;48509;52.122;5.250;2023-05-19T00:56:58;102747.0;;;10.3;92.84
62458;BME280;48509;52.122;5.250;2023-05-19T00:58:35;102749.0;;;10.25;92.92
62458;BME280;48509;52.122;5.250;2023-05-19T01:01:50;102746.0;;;10.17;93.33
62458;BME280;48509;52.122;5.250;2023-05-19T01:03:29;102747.0;;;10.05;94.27
62458;BME280;48509;52.122;5.250;2023-05-19T01:05:07;102745.0;;;9.98;94.4
62458;BME280;48509;52.122;5.250;2023-05-19T01:06:45;102750.0;;;9.99;94.53
62458;BME280;48509;52.122;5.250;2023-05-19T01:09:58;102751.0;;;9.88;95.5
62458;BME280;48509;52.122;5.250;2023-05-19T01:11:34;102752.0;;;9.78;96.06
62458;BME280;48509;52.122;5.250;2023-05-19T01:13:10;102753.0;;;9.75;96.29
62458;BME280;48509;52.122;5.250;2023-05-19T01:16:28;102747.0;;;9.97;95.08
62458;BME280;48509;52.122;5.250;2023-05-19T01:18:10;102745.0;;;10.02;94.96
62458;BME280;48509;52.122;5.250;2023-05-19T01:19:54;102746.0;;;9.99;94.67
62458;BME280;48509;52.122;5.250;2023-05-19T01:23:17;102744.0;;;9.97;94.63
62458;BME280;48509;52.122;5.250;2023-05-19T01:25:12;102742.0;;;10.01;94.48
62458;BME280;48509;52.122;5.250;2023-05-19T01:27:19;102744.0;;;10.14;93.73
62458;BME280;48509;52.122;5.250;2023-05-19T01:29:30;102741.00000000001;;;9.99;94.28
62458;BME280;48509;52.122;5.250;2023-05-19T01:31:18;102740.00000000001;;;10.02;94.21
62458;BME280;48509;52.122;5.250;2023-05-19T01:32:59;102739.00000000001;;;10.06;94.07
62458;BME280;48509;52.122;5.250;2023-05-19T01:34:41;102733.99999999999;;;10.17;93.77
62458;BME280;48509;52.122;5.250;2023-05-19T01:36:18;102730.0;;;10.18;93.98
62458;BME280;48509;52.122;5.250;2023-05-19T01:39:35;102730.0;;;10.29;93.54
62458;BME280;48509;52.122;5.250;2023-05-19T01:41:13;102727.0;;;10.27;93.52
62458;BME280;48509;52.122;5.250;2023-05-19T01:42:51;102729.0;;;10.33;93.13
62458;BME280;48509;52.122;5.250;2023-05-19T01:44:30;102733.0;;;10.38;93.08
62458;BME280;48509;52.122;5.250;2023-05-19T01:47:49;102731.0;;;10.33;93.2
62458;BME280;48509;52.122;5.250;2023-05-19T01:49:29;102724.0;;;10.3;93.44
62458;BME280;48509;52.122;5.250;2023-05-19T01:51:05;102724.0;;;10.3;93.25
62458;BME280;48509;52.122;5.250;2023-05-19T01:54:17;102723.0;;;10.3;93.23
62458;BME280;48509;52.122;5.250;2023-05-19T01:55:55;102724.0;;;10.4;92.9
62458;BME280;48509;52.122;5.250;2023-05-19T01:57:42;102719.0;;;10.46;92.67
62458;BME280;48509;52.122;5.250;2023-05-19T01:59:36;102716.00000000001;;;10.38;92.94
62458;BME280;48509;52.122;5.250;2023-05-19T02:01:22;102715.00000000001;;;10.34;93.03
62458;BME280;48509;52.122;5.250;2023-05-19T02:05:02;102714.00000000001;;;10.32;93.15
62458;BME280;48509;52.122;5.250;2023-05-19T02:06:48;102716.00000000001;;;10.16;94.0
62458;BME280;48509;52.122;5.250;2023-05-19T02:08:40;102719.0;;;10.19;93.94
62458;BME280;48509;52.122;5.250;2023-05-19T02:10:27;102717.0;;;10.18;94.43
62458;BME280;48509;52.122;5.250;2023-05-19T02:12:10;102717.0;;;10.26;93.66
62458;BME280;48509;52.122;5.250;2023-05-19T02:13:55;102717.0;;;10.24;93.96
62458;BME280;48509;52.122;5.250;2023-05-19T02:17:17;102717.0;;;10.13;94.5
62458;BME280;48509;52.122;5.250;2023-05-19T02:18:55;102717.0;;;10.01;95.5
62458;BME280;48509;52.122;5.250;2023-05-19T02:20:31;102718.0;;;9.86;96.31
62458;BME280;48509;52.122;5.250;2023-05-19T02:22:07;102715.00000000001;;;9.92;95.88
62458;BME280;48509;52.122;5.250;2023-05-19T02:25:19;102717.0;;;9.9;96.1
62458;BME280;48509;52.122;5.250;2023-05-19T02:26:56;102711.99999999999;;;9.76;96.83
62458;BME280;48509;52.122;5.250;2023-05-19T02:28:32;102715.00000000001;;;9.84;96.49
62458;BME280;48509;52.122;5.250;2023-05-19T02:31:45;102711.99999999999;;;10.02;95.87
62458;BME280;48509;52.122;5.250;2023-05-19T02:33:21;102708.0;;;9.93;96.47
62458;BME280;48509;52.122;5.250;2023-05-19T02:34:57;102708.99999999999;;;9.98;96.05
62458;BME280;48509;52.122;5.250;2023-05-19T02:38:11;102703.0;;;9.77;96.84
62458;BME280;48509;52.122;5.250;2023-05-19T02:39:47;102703.0;;;9.91;96.34
62458;BME280;48509;52.122;5.250;2023-05-19T02:41:23;102701.0;;;9.82;96.24
62458;BME280;48509;52.122;5.250;2023-05-19T02:42:59;102699.0;;;9.71;97.13
62458;BME280;48509;52.122;5.250;2023-05-19T02:46:12;102698.0;;;9.73;97.15
62458;BME280;48509;52.122;5.250;2023-05-19T02:47:48;102692.0;;;9.6;98.02
62458;BME280;48509;52.122;5.250;2023-05-19T02:49:24;102683.99999999999;;;9.64;97.95
62458;BME280;48509;52.122;5.250;2023-05-19T02:52:36;102684.99999999999;;;9.59;97.96
62458;BME280;48509;52.122;5.250;2023-05-19T02:54:12;102684.99999999999;;;9.61;98.24
62458;BME280;48509;52.122;5.250;2023-05-19T02:55:49;102683.99999999999;;;9.48;99.33
62458;BME280;48509;52.122;5.250;2023-05-19T02:59:01;102683.99999999999;;;9.56;98.65
62458;BME280;48509;52.122;5.250;2023-05-19T03:00:37;102686.99999999999;;;9.39;99.55
62458;BME280;48509;52.122;5.250;2023-05-19T03:02:13;102682.0;;;9.5;98.95
62458;BME280;48509;52.122;5.250;2023-05-19T03:05:26;102681.0;;;9.27;99.74
62458;BME280;48509;52.122;5.250;2023-05-19T03:07:02;102677.0;;;9.19;100.0
62458;BME280;48509;52.122;5.250;2023-05-19T03:08:38;102675.0;;;9.35;100.0
62458;BME280;48509;52.122;5.250;2023-05-19T03:10:14;102674.0;;;9.26;100.0
62458;BME280;48509;52.122;5.250;2023-05-19T03:13:26;102672.0;;;9.18;100.0
62458;BME280;48509;52.122;5.250;2023-05-19T03:15:03;102672.0;;;9.18;100.0
62458;BME280;48509;52.122;5.250;2023-05-19T03:16:40;102676.0;;;9.06;100.0
62458;BME280;48509;52.122;5.250;2023-05-19T03:19:52;102681.0;;;9.01;100.0
62458;BME280;48509;52.122;5.250;2023-05-19T03:21:28;102682.0;;;9.09;100.0
62458;BME280;48509;52.122;5.250;2023-05-19T03:23:05;102676.0;;;9.07;100.0
62458;BME280;48509;52.122;5.250;2023-05-19T03:26:17;102677.0;;;9.07;100.0
62458;BME280;48509;52.122;5.250;2023-05-19T03:27:53;102675.0;;;9.01;100.0
62458;BME280;48509;52.122;5.250;2023-05-19T03:29:29;102676.0;;;9.28;100.0
62458;BME280;48509;52.122;5.250;2023-05-19T03:31:06;102675.0;;;9.21;100.0
62458;BME280;48509;52.122;5.250;2023-05-19T03:34:18;102679.0;;;9.1;100.0
62458;BME280;48509;52.122;5.250;2023-05-19T03:35:55;102681.0;;;9.06;100.0
62458;BME280;48509;52.122;5.250;2023-05-19T03:37:31;102675.0;;;8.99;100.0
62458;BME280;48509;52.122;5.250;2023-05-19T03:40:43;102676.0;;;9.05;100.0
62458;BME280;48509;52.122;5.250;2023-05-19T03:42:20;102672.0;;;9.03;100.0
62458;BME280;48509;52.122;5.250;2023-05-19T03:43:56;102666.00000000001;;;9.02;100.0
62458;BME280;48509;52.122;5.250;2023-05-19T03:47:08;102667.0;;;9.11;100.0
62458;BME280;48509;52.122;5.250;2023-05-19T03:48:44;102670.0;;;9.3;100.0
62458;BME280;48509;52.122;5.250;2023-05-19T03:50:21;102668.0;;;9.42;100.0
62458;BME280;48509;52.122;5.250;2023-05-19T03:53:33;102670.0;;;9.5;100.0
62458;BME280;48509;52.122;5.250;2023-05-19T03:55:09;102667.0;;;9.31;100.0
62458;BME280;48509;52.122;5.250;2023-05-19T03:56:45;102667.0;;;9.49;100.0
62458;BME280;48509;52.122;5.250;2023-05-19T03:58:21;102672.0;;;9.24;100.0
62458;BME280;48509;52.122;5.250;2023-05-19T04:01:34;102669.0;;;9.1;100.0
62458;BME280;48509;52.122;5.250;2023-05-19T04:03:10;102669.0;;;8.98;100.0
62458;BME280;48509;52.122;5.250;2023-05-19T04:04:46;102668.0;;;8.89;100.0
62458;BME280;48509;52.122;5.250;2023-05-19T04:07:58;102668.0;;;8.94;100.0
62458;BME280;48509;52.122;5.250;2023-05-19T04:09:34;102667.0;;;9.02;100.0
62458;BME280;48509;52.122;5.250;2023-05-19T04:11:11;102670.0;;;9.05;100.0
62458;BME280;48509;52.122;5.250;2023-05-19T04:14:23;102672.0;;;9.18;100.0
62458;BME280;48509;52.122;5.250;2023-05-19T04:15:59;102673.0;;;9.19;100.0
62458;BME280;48509;52.122;5.250;2023-05-19T04:17:35;102675.0;;;9.17;100.0
62458;BME280;48509;52.122;5.250;2023-05-19T04:19:11;102676.0;;;9.23;100.0
62458;BME280;48509;52.122;5.250;2023-05-19T04:22:24;102675.0;;;9.27;100.0
62458;BME280;48509;52.122;5.250;2023-05-19T04:24:00;102680.0;;;9.39;100.0
62458;BME280;48509;52.122;5.250;2023-05-19T04:25:36;102679.0;;;9.5;100.0
62458;BME280;48509;52.122;5.250;2023-05-19T04:28:48;102680.0;;;9.63;100.0
62458;BME280;48509;52.122;5.250;2023-05-19T04:30:25;102683.99999999999;;;9.61;100.0
62458;BME280;48509;52.122;5.250;2023-05-19T04:32:01;102682.0;;;9.49;100.0
62458;BME280;48509;52.122;5.250;2023-05-19T04:35:13;102686.99999999999;;;9.59;100.0
62458;BME280;48509;52.122;5.250;2023-05-19T04:36:49;102681.0;;;9.74;100.0
62458;BME280;48509;52.122;5.250;2023-05-19T04:38:25;102681.0;;;9.81;100.0
62458;BME280;48509;52.122;5.250;2023-05-19T04:41:38;102686.99999999999;;;9.74;100.0
62458;BME280;48509;52.122;5.250;2023-05-19T04:43:14;102683.0;;;9.74;100.0
62458;BME280;48509;52.122;5.250;2023-05-19T04:44:50;102686.99999999999;;;9.83;99.92
62458;BME280;48509;52.122;5.250;2023-05-19T04:46:26;102683.0;;;9.86;100.0
62458;BME280;48509;52.122;5.250;2023-05-19T04:49:39;102684.99999999999;;;9.93;100.0
62458;BME280;48509;52.122;5.250;2023-05-19T04:51:15;102686.99999999999;;;9.98;99.72
62458;BME280;48509;52.122;5.250;2023-05-19T04:52:51;102684.99999999999;;;10.01;99.54
62458;BME280;48509;52.122;5.250;2023-05-19T04:56:04;102683.99999999999;;;9.97;100.0
62458;BME280;48509;52.122;5.250;2023-05-19T04:57:40;102690.00000000001;;;9.81;100.0
62458;BME280;48509;52.122;5.250;2023-05-19T04:59:16;102690.00000000001;;;9.98;100.0
62458;BME280;48509;52.122;5.250;2023-05-19T05:02:29;102683.99999999999;;;9.85;100.0
62458;BME280;48509;52.122;5.250;2023-05-19T05:04:05;102681.0;;;9.8;100.0
62458;BME280;48509;52.122;5.250;2023-05-19T05:05:41;102684.99999999999;;;9.99;100.0
62458;BME280;48509;52.122;5.250;2023-05-19T05:07:17;102681.0;;;10.01;100.0
62458;BME280;48509;52.122;5.250;2023-05-19T05:10:30;102688.00000000001;;;10.02;100.0
62458;BME280;48509;52.122;5.250;2023-05-19T05:12:07;102692.0;;;10.18;100.0
62458;BME280;48509;52.122;5.250;2023-05-19T05:13:43;102694.0;;;10.09;100.0
62458;BME280;48509;52.122;5.250;2023-05-19T05:16:58;102694.0;;;10.09;100.0
62458;BME280;48509;52.122;5.250;2023-05-19T05:18:34;102701.0;;;10.07;100.0
62458;BME280;48509;52.122;5.250;2023-05-19T05:20:12;102701.0;;;10.06;100.0
62458;BME280;48509;52.122;5.250;2023-05-19T05:23:24;102699.0;;;10.07;100.0
62458;BME280;48509;52.122;5.250;2023-05-19T05:25:02;102698.0;;;10.23;100.0
62458;BME280;48509;52.122;5.250;2023-05-19T05:28:15;102704.0;;;10.43;100.0
62458;BME280;48509;52.122;5.250;2023-05-19T05:31:27;102702.0;;;10.42;100.0
62458;BME280;48509;52.122;5.250;2023-05-19T05:33:03;102697.0;;;10.44;100.0
62458;BME280;48509;52.122;5.250;2023-05-19T05:34:39;102696.0;;;10.48;100.0
62458;BME280;48509;52.122;5.250;2023-05-19T05:37:52;102703.0;;;10.49;100.0
62458;BME280;48509;52.122;5.250;2023-05-19T05:39:28;102700.0;;;10.65;99.79
62458;BME280;48509;52.122;5.250;2023-05-19T05:41:04;102703.0;;;10.68;99.24
62458;BME280;48509;52.122;5.250;2023-05-19T05:44:16;102700.0;;;10.73;99.4
62458;BME280;48509;52.122;5.250;2023-05-19T05:45:53;102698.0;;;10.77;99.29
62458;BME280;48509;52.122;5.250;2023-05-19T05:47:29;102700.0;;;10.67;100.0
62458;BME280;48509;52.122;5.250;2023-05-19T05:50:42;102703.0;;;10.9;99.09
62458;BME280;48509;52.122;5.250;2023-05-19T05:52:20;102706.0;;;10.85;99.28
62458;BME280;48509;52.122;5.250;2023-05-19T05:53:57;102704.0;;;10.97;98.59
62458;BME280;48509;52.122;5.250;2023-05-19T05:55:35;102702.0;;;11.03;97.75
62458;BME280;48509;52.122;5.250;2023-05-19T05:58:47;102706.0;;;11.15;97.37
62458;BME280;48509;52.122;5.250;2023-05-19T06:00:23;102700.0;;;11.06;95.72
62458;BME280;48509;52.122;5.250;2023-05-19T06:02:00;102699.0;;;11.14;95.71
62458;BME280;48509;52.122;5.250;2023-05-19T06:05:13;102700.0;;;11.34;94.93
62458;BME280;48509;52.122;5.250;2023-05-19T06:06:49;102693.0;;;11.36;95.15
62458;BME280;48509;52.122;5.250;2023-05-19T06:08:25;102700.0;;;11.48;94.5
62458;BME280;48509;52.122;5.250;2023-05-19T06:11:37;102705.0;;;11.54;93.95
62458;BME280;48509;52.122;5.250;2023-05-19T06:13:14;102708.99999999999;;;11.61;94.83
62458;BME280;48509;52.122;5.250;2023-05-19T06:14:50;102704.0;;;11.66;93.69
62458;BME280;48509;52.122;5.250;2023-05-19T06:16:26;102713.00000000001;;;11.72;93.97
62458;BME280;48509;52.122;5.250;2023-05-19T06:19:38;102707.0;;;11.86;92.66
62458;BME280;48509;52.122;5.250;2023-05-19T06:21:14;102704.0;;;11.89;92.68
62458;BME280;48509;52.122;5.250;2023-05-19T06:22:51;102701.0;;;11.92;91.83
62458;BME280;48509;52.122;5.250;2023-05-19T06:26:03;102699.0;;;12.0;89.46
62458;BME280;48509;52.122;5.250;2023-05-19T06:27:40;102698.0;;;12.12;89.05
62458;BME280;48509;52.122;5.250;2023-05-19T06:29:16;102698.0;;;12.17;89.95
62458;BME280;48509;52.122;5.250;2023-05-19T06:32:29;102695.0;;;12.29;89.58
62458;BME280;48509;52.122;5.250;2023-05-19T06:34:05;102698.0;;;12.21;88.26
62458;BME280;48509;52.122;5.250;2023-05-19T06:35:41;102702.0;;;12.24;90.52
62458;BME280;48509;52.122;5.250;2023-05-19T06:37:17;102699.0;;;12.46;88.46
62458;BME280;48509;52.122;5.250;2023-05-19T06:40:29;102693.0;;;12.46;87.43
62458;BME280;48509;52.122;5.250;2023-05-19T06:42:06;102691.00000000001;;;12.57;86.95
62458;BME280;48509;52.122;5.250;2023-05-19T06:43:42;102692.0;;;12.62;88.95
62458;BME280;48509;52.122;5.250;2023-05-19T06:46:54;102691.00000000001;;;12.75;86.25
62458;BME280;48509;52.122;5.250;2023-05-19T06:48:30;102684.99999999999;;;12.9;85.43
62458;BME280;48509;52.122;5.250;2023-05-19T06:50:08;102689.00000000001;;;12.98;84.7
62458;BME280;48509;52.122;5.250;2023-05-19T06:53:20;102692.0;;;13.05;85.76
62458;BME280;48509;52.122;5.250;2023-05-19T06:54:56;102692.0;;;13.14;83.81
62458;BME280;48509;52.122;5.250;2023-05-19T06:56:32;102688.00000000001;;;13.23;83.02
62458;BME280;48509;52.122;5.250;2023-05-19T06:59:45;102694.0;;;13.16;81.89
62458;BME280;48509;52.122;5.250;2023-05-19T07:01:21;102693.0;;;13.32;81.47
62458;BME280;48509;52.122;5.250;2023-05-19T07:02:57;102699.0;;;13.46;79.99
62458;BME280;48509;52.122;5.250;2023-05-19T07:04:33;102696.0;;;13.48;81.69
62458;BME280;48509;52.122;5.250;2023-05-19T07:07:46;102696.0;;;13.56;81.3
62458;BME280;48509;52.122;5.250;2023-05-19T07:09:22;102696.0;;;13.61;81.11
62458;BME280;48509;52.122;5.250;2023-05-19T07:10:58;102694.0;;;13.69;80.52
62458;BME280;48509;52.122;5.250;2023-05-19T07:14:10;102694.0;;;13.78;80.74
62458;BME280;48509;52.122;5.250;2023-05-19T07:15:46;102690.00000000001;;;13.87;81.41
62458;BME280;48509;52.122;5.250;2023-05-19T07:17:23;102692.0;;;13.94;83.2
62458;BME280;48509;52.122;5.250;2023-05-19T07:20:35;102697.0;;;13.88;81.23
62458;BME280;48509;52.122;5.250;2023-05-19T07:22:11;102698.0;;;13.83;82.09
62458;BME280;48509;52.122;5.250;2023-05-19T07:23:47;102690.00000000001;;;13.95;79.72
62458;BME280;48509;52.122;5.250;2023-05-19T07:25:23;102690.00000000001;;;13.91;78.41
62458;BME280;48509;52.122;5.250;2023-05-19T07:28:36;102689.00000000001;;;13.99;76.94
62458;BME280;48509;52.122;5.250;2023-05-19T07:30:12;102692.0;;;14.17;76.62
62458;BME280;48509;52.122;5.250;2023-05-19T07:31:48;102692.0;;;14.37;76.81
62458;BME280;48509;52.122;5.250;2023-05-19T07:35:01;102693.0;;;14.4;75.5
62458;BME280;48509;52.122;5.250;2023-05-19T07:36:37;102694.0;;;14.37;75.56
62458;BME280;48509;52.122;5.250;2023-05-19T07:38:13;102693.0;;;14.49;75.39
62458;BME280;48509;52.122;5.250;2023-05-19T07:41:25;102690.00000000001;;;14.63;76.0
62458;BME280;48509;52.122;5.250;2023-05-19T07:43:02;102690.00000000001;;;14.78;76.55
62458;BME280;48509;52.122;5.250;2023-05-19T07:44:38;102689.00000000001;;;14.91;74.91
62458;BME280;48509;52.122;5.250;2023-05-19T07:47:52;102688.00000000001;;;14.93;74.88
62458;BME280;48509;52.122;5.250;2023-05-19T07:49:28;102691.00000000001;;;15.02;72.95
62458;BME280;48509;52.122;5.250;2023-05-19T07:51:04;102688.00000000001;;;15.01;72.69
62458;BME280;48509;52.122;5.250;2023-05-19T07:52:41;102683.0;;;15.06;71.37
62458;BME280;48509;52.122;5.250;2023-05-19T07:55:53;102688.00000000001;;;15.18;71.89
62458;BME280;48509;52.122;5.250;2023-05-19T07:57:29;102680.0;;;15.27;73.14
62458;BME280;48509;52.122;5.250;2023-05-19T07:59:05;102679.0;;;15.33;73.19
62458;BME280;48509;52.122;5.250;2023-05-19T08:02:18;102674.0;;;15.37;74.14
62458;BME280;48509;52.122;5.250;2023-05-19T08:03:54;102676.0;;;15.44;72.02
62458;BME280;48509;52.122;5.250;2023-05-19T08:05:30;102675.0;;;15.47;72.67
62458;BME280;48509;52.122;5.250;2023-05-19T08:08:42;102675.0;;;15.63;70.41
62458;BME280;48509;52.122;5.250;2023-05-19T08:10:19;102667.0;;;15.62;72.52
62458;BME280;48509;52.122;5.250;2023-05-19T08:11:55;102667.0;;;15.68;67.89
62458;BME280;48509;52.122;5.250;2023-05-19T08:13:31;102666.00000000001;;;15.87;66.81
62458;BME280;48509;52.122;5.250;2023-05-19T08:16:44;102664.00000000001;;;16.03;67.02
62458;BME280;48509;52.122;5.250;2023-05-19T08:18:20;102658.99999999999;;;16.12;63.9
62458;BME280;48509;52.122;5.250;2023-05-19T08:19:57;102663.00000000001;;;16.34;63.67
62458;BME280;48509;52.122;5.250;2023-05-19T08:23:09;102656.0;;;16.34;64.48
62458;BME280;48509;52.122;5.250;2023-05-19T08:24:45;102658.0;;;16.45;65.22
62458;BME280;48509;52.122;5.250;2023-05-19T08:26:21;102651.0;;;16.52;62.23
62458;BME280;48509;52.122;5.250;2023-05-19T08:29:34;102648.0;;;16.59;62.73
62458;BME280;48509;52.122;5.250;2023-05-19T08:31:10;102648.0;;;16.68;62.58
62458;BME280;48509;52.122;5.250;2023-05-19T08:32:46;102654.0;;;16.61;61.79
62458;BME280;48509;52.122;5.250;2023-05-19T08:35:57;102646.0;;;16.45;58.54
62458;BME280;48509;52.122;5.250;2023-05-19T08:37:34;102651.0;;;16.36;57.55
62458;BME280;48509;52.122;5.250;2023-05-19T08:39:11;102649.0;;;16.38;59.31
62458;BME280;48509;52.122;5.250;2023-05-19T08:40:47;102648.0;;;16.37;60.93
62458;BME280;48509;52.122;5.250;2023-05-19T08:43:59;102644.0;;;16.53;61.02
62458;BME280;48509;52.122;5.250;2023-05-19T08:45:36;102640.00000000001;;;16.61;58.67
62458;BME280;48509;52.122;5.250;2023-05-19T08:47:14;102632.0;;;16.78;58.83
62458;BME280;48509;52.122;5.250;2023-05-19T08:50:35;102633.99999999999;;;16.95;59.69
62458;BME280;48509;52.122;5.250;2023-05-19T08:52:20;102632.0;;;17.0;54.79
62458;BME280;48509;52.122;5.250;2023-05-19T08:54:15;102630.0;;;17.0;55.29
62458;BME280;48509;52.122;5.250;2023-05-19T08:56:00;102627.0;;;16.91;53.29
62458;BME280;48509;52.122;5.250;2023-05-19T08:57:39;102621.0;;;17.0;53.28
62458;BME280;48509;52.122;5.250;2023-05-19T09:00:55;102619.0;;;16.95;56.32
62458;BME280;48509;52.122;5.250;2023-05-19T09:02:33;102622.0;;;17.02;53.38
62458;BME280;48509;52.122;5.250;2023-05-19T09:04:10;102620.0;;;17.07;53.92
62458;BME280;48509;52.122;5.250;2023-05-19T09:05:47;102619.0;;;17.16;55.64
62458;BME280;48509;52.122;5.250;2023-05-19T09:09:00;102615.00000000001;;;17.09;54.27
62458;BME280;48509;52.122;5.250;2023-05-19T09:10:36;102618.0;;;17.02;56.01
62458;BME280;48509;52.122;5.250;2023-05-19T09:12:13;102620.0;;;16.89;54.73
62458;BME280;48509;52.122;5.250;2023-05-19T09:15:26;102617.0;;;16.89;57.1
62458;BME280;48509;52.122;5.250;2023-05-19T09:17:02;102614.00000000001;;;17.02;58.61
62458;BME280;48509;52.122;5.250;2023-05-19T09:18:38;102616.00000000001;;;17.21;57.99
62458;BME280;48509;52.122;5.250;2023-05-19T09:21:57;102611.99999999999;;;17.29;55.09
62458;BME280;48509;52.122;5.250;2023-05-19T09:23:33;102608.99999999999;;;17.34;51.31
62458;BME280;48509;52.122;5.250;2023-05-19T09:25:17;102604.0;;;17.45;54.16
62458;BME280;48509;52.122;5.250;2023-05-19T09:26:54;102605.0;;;17.5;54.7
62458;BME280;48509;52.122;5.250;2023-05-19T09:30:11;102600.0;;;17.5;53.09
62458;BME280;48509;52.122;5.250;2023-05-19T09:31:47;102600.0;;;17.56;53.71
62458;BME280;48509;52.122;5.250;2023-05-19T09:33:24;102605.0;;;17.79;54.0
62458;BME280;48509;52.122;5.250;2023-05-19T09:36:38;102605.0;;;17.81;50.44
62458;BME280;48509;52.122;5.250;2023-05-19T09:38:16;102609.99999999999;;;17.79;49.91
62458;BME280;48509;52.122;5.250;2023-05-19T09:39:53;102615.00000000001;;;17.86;51.04
62458;BME280;48509;52.122;5.250;2023-05-19T09:41:29;102608.0;;;17.78;45.5
62458;BME280;48509;52.122;5.250;2023-05-19T09:44:43;102607.0;;;17.87;48.94
62458;BME280;48509;52.122;5.250;2023-05-19T09:46:23;102606.0;;;17.93;49.5
62458;BME280;48509;52.122;5.250;2023-05-19T09:48:02;102606.0;;;17.79;46.78
62458;BME280;48509;52.122;5.250;2023-05-19T09:51:22;102607.0;;;17.97;47.62
62458;BME280;48509;52.122;5.250;2023-05-19T09:52:59;102607.0;;;18.07;45.37
62458;BME280;48509;52.122;5.250;2023-05-19T09:54:36;102606.0;;;17.95;44.18
62458;BME280;48509;52.122;5.250;2023-05-19T09:56:14;102606.0;;;17.91;48.03
62458;BME280;48509;52.122;5.250;2023-05-19T09:59:31;102608.0;;;17.84;48.29
62458;BME280;48509;52.122;5.250;2023-05-19T10:01:08;102601.0;;;17.79;47.19
62458;BME280;48509;52.122;5.250;2023-05-19T10:02:46;102600.0;;;17.96;48.66
62458;BME280;48509;52.122;5.250;2023-05-19T10:04:23;102603.0;;;18.03;46.82
62458;BME280;48509;52.122;5.250;2023-05-19T10:07:39;102605.0;;;18.09;46.84
62458;BME280;48509;52.122;5.250;2023-05-19T10:09:16;102608.99999999999;;;18.25;46.03
62458;BME280;48509;52.122;5.250;2023-05-19T10:10:52;102602.0;;;18.28;45.17
62458;BME280;48509;52.122;5.250;2023-05-19T10:14:06;102595.0;;;18.34;48.08
62458;BME280;48509;52.122;5.250;2023-05-19T10:15:43;102592.0;;;18.36;46.83
62458;BME280;48509;52.122;5.250;2023-05-19T10:17:23;102594.0;;;18.45;48.81
62458;BME280;48509;52.122;5.250;2023-05-19T10:19:01;102589.00000000001;;;18.36;46.95
62458;BME280;48509;52.122;5.250;2023-05-19T10:22:17;102589.00000000001;;;18.43;48.94
62458;BME280;48509;52.122;5.250;2023-05-19T10:23:53;102584.99999999999;;;18.34;46.62
62458;BME280;48509;52.122;5.250;2023-05-19T10:25:31;102583.0;;;18.48;45.59
62458;BME280;48509;52.122;5.250;2023-05-19T10:28:49;102583.99999999999;;;18.34;47.21
62458;BME280;48509;52.122;5.250;2023-05-19T10:30:28;102582.0;;;18.41;48.16
62458;BME280;48509;52.122;5.250;2023-05-19T10:32:10;102582.0;;;18.18;46.02
62458;BME280;48509;52.122;5.250;2023-05-19T10:34:19;102578.0;;;18.46;45.69
62458;BME280;48509;52.122;5.250;2023-05-19T10:36:07;102581.0;;;18.36;47.58
62458;BME280;48509;52.122;5.250;2023-05-19T10:37:56;102576.0;;;18.5;47.92
62458;BME280;48509;52.122;5.250;2023-05-19T10:41:15;102578.0;;;18.68;48.21
62458;BME280;48509;52.122;5.250;2023-05-19T10:43:14;102570.0;;;18.8;48.01
62458;BME280;48509;52.122;5.250;2023-05-19T10:45:01;102570.0;;;18.87;47.63
62458;BME280;48509;52.122;5.250;2023-05-19T10:46:52;102564.00000000001;;;18.88;46.44
62458;BME280;48509;52.122;5.250;2023-05-19T10:48:32;102568.0;;;18.95;47.11
62458;BME280;48509;52.122;5.250;2023-05-19T10:51:46;102567.0;;;19.04;44.17